Flugplatz Mühlhausen

Für EDEQ sind keine METAR/TAF Berichte vorhanden.
Es werden die Flugwettermeldungen vom Flugplatz Erfurt in 38 km Entfernung angezeigt.

Bericht für EDDE

vom 29.02. um 00:20 UTC

Wind 16 kt aus 200°

Sichtweite 10 km oder mehr

schwacher Schnee

schwacher Regen

gering bewölkt in 1000 ft

aufgebrochene Bewölkung in 3900 ft

Temperatur 2.0°C

Taupunkt 0.0°C

Luftfeuchtigkeit 87%

Luftdruck 1006 hPa

EDDE 290020Z 20016KT 9999 -SNRA FEW010 BKN039 02/M00 Q1006

Prognose für EDDE

vom 28.02. um 00:00 UTC

Zwischen 00:00 UTC und 00:00 UTC

Wind 15 kt aus 200° in Böen 25 kt

Sichtweite 10 km oder mehr

aufgebrochene Bewölkung in 1500 ft


Zwischen 00:00 UTC und 00:00 UTC zeitweise

Sichtweite 4000 m

schwacher Regen

schwacher Schnee

aufgebrochene Bewölkung in 1000 ft


Zwischen 00:00 UTC und 00:00 UTC zeitweise

Wind 20 kt aus 220° in Böen 35 kt


Zwischen 00:00 UTC und 00:00 UTC zeitweise

Wind 20 kt aus 220° in Böen 35 kt

Regenschauer

aufgebrochene Bewölkung in 1500 ft

TAF EDDE 282300Z 2900/2924 20015G25KT 9999 BKN015 TEMPO 2900/2903 4000 -RASN BKN010 TEMPO 2911/2919 22020G35KT TEMPO 2919/2921 22020G35KT SHRA BKN015CB
Impressum